Terminal Aerodrome Forecast
Issued by NWS

Home | Current Version | Previous Version | Text Only | Print | Product List | Glossary Off
Versions: 1 2 3 4 5 6 7 8 9 10 11 12 13 14 15 16 17 18 19 20 21 22 23

000
FTUS43 KGRB 230200 AAA
TAFCWA
TAF AMD
KCWA 230213Z 2302/2324 17004KT 1SM -DZ BR OVC004
      TEMPO 2302/2306 1/4SM FG VV002
     FM230600 17007KT 1/2SM -DZ FG VV002
     FM231500 16007KT 1SM -RA BR OVC004
     FM232100 14006KT 2SM -RA BR OVC003
      AMD LTD TO CLD VIS AND WIND 2303/2311=

USA.gov is the U.S. government's official web portal to all federal, state and local government web resources and services.